createdAt,value
2018-04-01T00:00:54.732Z,55.20
2018-04-01T00:01:54.712Z,55.70
2018-04-01T00:02:54.681Z,56.70
2018-04-01T00:03:54.661Z,54.20
2018-04-01T00:04:54.632Z,54.30
2018-04-01T00:05:54.602Z,54.10
2018-04-01T00:06:54.579Z,56.60
2018-04-01T00:07:54.561Z,53.30
2018-04-01T00:08:54.529Z,55.20
2018-04-01T00:09:54.507Z,53.90
2018-04-01T00:10:54.478Z,53.50
2018-04-01T00:11:54.455Z,54.10
2018-04-01T00:12:54.429Z,58.30
2018-04-01T00:13:54.406Z,53.40
2018-04-01T00:14:54.379Z,55.70
2018-04-01T00:15:54.356Z,60.20
2018-04-01T00:16:54.326Z,53.40
2018-04-01T00:17:54.342Z,56.20
2018-04-01T00:18:54.271Z,55.90
2018-04-01T00:19:54.243Z,58.90
2018-04-01T00:20:54.226Z,53.00
2018-04-01T00:21:54.251Z,55.50
2018-04-01T00:22:54.175Z,52.80
2018-04-01T00:23:54.159Z,53.50
2018-04-01T00:24:54.124Z,60.20
2018-04-01T00:25:54.112Z,58.30
2018-04-01T00:26:54.078Z,59.20
2018-04-01T00:27:54.046Z,58.00
2018-04-01T00:28:54.015Z,59.50
2018-04-01T00:29:53.995Z,61.40
2018-04-01T00:30:53.975Z,62.90
2018-04-01T00:31:53.944Z,59.10
2018-04-01T00:32:53.918Z,60.70
2018-04-01T00:33:53.893Z,64.50
2018-04-01T00:34:53.868Z,57.60
2018-04-01T00:35:53.843Z,58.10
2018-04-01T00:36:53.807Z,57.20
2018-04-01T00:37:53.790Z,61.20
2018-04-01T00:38:53.765Z,55.20
2018-04-01T00:39:53.742Z,62.10
2018-04-01T00:40:53.714Z,64.50
2018-04-01T00:41:53.696Z,56.70
2018-04-01T00:42:53.662Z,63.50
2018-04-01T00:43:53.634Z,58.80
2018-04-01T00:44:53.661Z,61.60
2018-04-01T00:45:53.589Z,57.30
2018-04-01T00:46:53.555Z,62.00
2018-04-01T00:47:53.529Z,60.30
2018-04-01T00:48:53.508Z,58.80
2018-04-01T00:49:53.484Z,60.60
2018-04-01T00:50:53.455Z,58.40
2018-04-01T00:51:53.431Z,59.70
2018-04-01T00:52:53.405Z,60.10
2018-04-01T00:53:53.376Z,61.60
2018-04-01T00:54:53.355Z,57.90
2018-04-01T00:55:53.334Z,58.80
2018-04-01T00:56:53.301Z,62.70
2018-04-01T00:57:53.277Z,64.10
2018-04-01T00:58:53.254Z,69.40
2018-04-01T00:59:53.279Z,61.10
2018-04-01T01:00:53.201Z,62.30
2018-04-01T01:01:53.175Z,61.40
2018-04-01T01:02:53.146Z,60.30
2018-04-01T01:03:53.127Z,59.30
2018-04-01T01:04:53.098Z,59.70
2018-04-01T01:05:53.067Z,58.10
2018-04-01T01:06:53.046Z,58.80
2018-04-01T01:07:53.021Z,64.60
2018-04-01T01:08:52.995Z,62.40
2018-04-01T01:10:03.755Z,61.20
2018-04-01T01:10:52.954Z,59.30
2018-04-01T01:11:52.934Z,58.40
2018-04-01T01:12:52.908Z,58.90
2018-04-01T01:13:52.873Z,64.40
2018-04-01T01:14:52.846Z,59.60
2018-04-01T01:15:52.820Z,56.90
2018-04-01T01:16:52.795Z,58.60
2018-04-01T01:17:52.767Z,62.70
2018-04-01T01:18:52.764Z,65.50
2018-04-01T01:19:52.721Z,66.10
2018-04-01T01:20:52.693Z,59.40
2018-04-01T01:21:52.667Z,60.20
2018-04-01T01:22:52.641Z,54.70
2018-04-01T01:23:52.615Z,58.50
2018-04-01T01:24:52.595Z,63.20
2018-04-01T01:25:52.578Z,61.70
2018-04-01T01:26:52.540Z,57.60
2018-04-01T01:27:52.517Z,58.60
2018-04-01T01:28:52.486Z,61.50
2018-04-01T01:29:52.472Z,57.30
2018-04-01T01:30:52.436Z,57.60
2018-04-01T01:31:52.406Z,62.70
2018-04-01T01:32:52.402Z,61.00
2018-04-01T01:33:52.383Z,58.80
2018-04-01T01:34:52.332Z,59.90
2018-04-01T01:35:52.335Z,61.60
2018-04-01T01:36:52.297Z,62.40
2018-04-01T01:37:52.273Z,59.40
2018-04-01T01:38:52.238Z,64.60
2018-04-01T01:39:52.203Z,65.50
2018-04-01T01:40:52.178Z,57.40
2018-04-01T01:41:52.159Z,61.60
2018-04-01T01:42:52.128Z,64.20
2018-04-01T01:43:52.110Z,57.80
2018-04-01T01:44:52.084Z,59.70
2018-04-01T01:45:52.050Z,60.80
2018-04-01T01:46:52.038Z,64.60
2018-04-01T01:47:51.998Z,62.70
2018-04-01T01:48:51.976Z,65.10
2018-04-01T01:49:51.948Z,63.60
2018-04-01T01:50:51.922Z,61.90
2018-04-01T01:51:51.898Z,64.10
2018-04-01T01:52:51.870Z,67.20
2018-04-01T01:53:51.844Z,63.20
2018-04-01T01:54:51.837Z,65.10
2018-04-01T01:55:51.794Z,65.60
2018-04-01T01:56:51.775Z,64.50
2018-04-01T01:57:51.744Z,63.60
2018-04-01T01:58:51.723Z,62.90
2018-04-01T01:59:51.695Z,61.60
2018-04-01T02:00:51.678Z,60.80
2018-04-01T02:01:51.652Z,66.60
2018-04-01T02:02:51.628Z,63.90
2018-04-01T02:03:51.590Z,62.80
2018-04-01T02:04:51.576Z,60.60
2018-04-01T02:05:51.551Z,60.20
2018-04-01T02:06:51.515Z,58.40
2018-04-01T02:07:51.494Z,64.00
2018-04-01T02:08:51.465Z,60.40
2018-04-01T02:09:51.487Z,59.00
2018-04-01T02:10:51.457Z,62.30
2018-04-01T02:11:51.388Z,68.30
2018-04-01T02:12:51.379Z,59.60
2018-04-01T02:13:51.347Z,58.00
2018-04-01T02:14:51.308Z,58.60
2018-04-01T02:15:51.284Z,61.30
2018-04-01T02:16:51.265Z,63.10
2018-04-01T02:17:51.234Z,63.10
2018-04-01T02:18:51.222Z,61.00
2018-04-01T02:19:51.192Z,65.60
2018-04-01T02:20:51.168Z,61.90
2018-04-01T02:21:51.142Z,57.70
2018-04-01T02:22:51.107Z,57.30
2018-04-01T02:23:51.081Z,60.70
2018-04-01T02:24:51.057Z,60.40
2018-04-01T02:25:51.041Z,62.60
2018-04-01T02:26:51.006Z,59.00
2018-04-01T02:27:50.978Z,58.30
2018-04-01T02:28:50.971Z,59.20
2018-04-01T02:29:50.932Z,61.00
2018-04-01T02:30:50.904Z,64.00
2018-04-01T02:31:50.889Z,61.00
2018-04-01T02:32:50.860Z,62.30
2018-04-01T02:33:50.827Z,61.80
2018-04-01T02:34:50.803Z,59.60
2018-04-01T02:35:50.779Z,60.50
2018-04-01T02:36:50.752Z,64.50
2018-04-01T02:37:50.727Z,59.40
2018-04-01T02:38:50.727Z,58.50
2018-04-01T02:39:50.686Z,56.10
2018-04-01T02:40:50.702Z,61.20
2018-04-01T02:41:50.635Z,63.00
2018-04-01T02:42:50.610Z,61.70
2018-04-01T02:43:50.574Z,57.90
2018-04-01T02:44:50.565Z,57.40
2018-04-01T02:45:50.522Z,58.60
2018-04-01T02:46:50.509Z,58.70
2018-04-01T02:47:50.470Z,60.10
2018-04-01T02:48:50.461Z,56.30
2018-04-01T02:49:50.420Z,61.30
2018-04-01T02:50:50.408Z,60.30
2018-04-01T02:51:50.382Z,56.50
2018-04-01T02:52:50.346Z,54.20
2018-04-01T02:53:50.332Z,56.60
2018-04-01T02:54:50.297Z,59.50
2018-04-01T02:55:50.279Z,62.10
2018-04-01T02:56:50.241Z,56.20
2018-04-01T02:57:50.221Z,54.60
2018-04-01T02:58:50.192Z,55.50
2018-04-01T02:59:50.168Z,60.30
2018-04-01T03:00:50.151Z,57.10
2018-04-01T03:01:50.125Z,54.00
2018-04-01T03:02:50.104Z,53.10
2018-04-01T03:03:50.065Z,56.70
2018-04-01T03:04:50.038Z,59.50
2018-04-01T03:05:50.023Z,57.20
2018-04-01T03:06:49.986Z,58.20
2018-04-01T03:07:49.977Z,59.70
2018-04-01T03:08:49.947Z,57.90
2018-04-01T03:09:49.915Z,55.50
2018-04-01T03:10:49.885Z,58.70
2018-04-01T03:11:49.861Z,57.80
2018-04-01T03:12:49.847Z,56.50
2018-04-01T03:13:49.815Z,59.10
2018-04-01T03:14:49.797Z,56.00
2018-04-01T03:15:49.764Z,56.80
2018-04-01T03:16:49.732Z,61.30
2018-04-01T03:17:49.713Z,58.90
2018-04-01T03:18:49.698Z,62.10
2018-04-01T03:19:49.657Z,58.30
2018-04-01T03:20:49.631Z,57.30
2018-04-01T03:21:49.606Z,59.40
2018-04-01T03:22:49.591Z,61.20
2018-04-01T03:23:49.555Z,56.90
2018-04-01T03:24:49.530Z,58.80
2018-04-01T03:25:49.505Z,57.70
2018-04-01T03:26:49.479Z,63.00
2018-04-01T03:27:49.459Z,62.10
2018-04-01T03:28:49.426Z,58.40
2018-04-01T03:29:49.418Z,60.00
2018-04-01T03:30:49.388Z,60.50
2018-04-01T03:31:49.351Z,59.00
2018-04-01T03:32:49.336Z,64.60
2018-04-01T03:33:49.310Z,63.00
2018-04-01T03:34:49.273Z,59.00
2018-04-01T03:35:49.263Z,63.00
2018-04-01T03:36:49.222Z,60.30
2018-04-01T03:37:49.212Z,64.70
2018-04-01T03:38:49.170Z,66.70
2018-04-01T03:39:49.155Z,66.20
2018-04-01T03:40:49.125Z,62.00
2018-04-01T03:41:49.105Z,63.70
2018-04-01T03:42:49.085Z,70.20
2018-04-01T03:43:49.047Z,61.50
2018-04-01T03:44:49.016Z,60.30
2018-04-01T03:45:49.008Z,64.50
2018-04-01T03:46:48.971Z,68.20
2018-04-01T03:47:48.940Z,65.50
2018-04-01T03:48:48.914Z,62.90
2018-04-01T03:49:48.888Z,65.80
2018-04-01T03:50:48.878Z,62.80
2018-04-01T03:51:48.851Z,66.60
2018-04-01T03:52:48.846Z,74.30
2018-04-01T03:53:48.797Z,65.90
2018-04-01T03:54:48.761Z,61.70
2018-04-01T03:55:48.743Z,62.30
2018-04-01T03:56:48.713Z,65.20
2018-04-01T03:57:48.694Z,64.20
2018-04-01T03:58:48.658Z,68.60
2018-04-01T03:59:48.655Z,64.20
2018-04-01T04:00:48.609Z,65.50
2018-04-01T04:01:48.591Z,67.60
2018-04-01T04:02:48.578Z,66.70
2018-04-01T04:03:48.530Z,71.80
2018-04-01T04:04:48.505Z,64.00
2018-04-01T04:05:48.478Z,65.50
2018-04-01T04:06:48.454Z,66.90
2018-04-01T04:07:48.426Z,69.90
2018-04-01T04:08:48.412Z,67.10
2018-04-01T04:09:48.376Z,66.30
2018-04-01T04:10:48.356Z,67.30
2018-04-01T04:11:48.325Z,67.00
2018-04-01T04:12:48.309Z,63.90
2018-04-01T04:13:48.287Z,66.10
2018-04-01T04:14:48.261Z,66.70
2018-04-01T04:15:48.239Z,66.20
2018-04-01T04:16:48.201Z,64.60
2018-04-01T04:17:48.184Z,68.20
2018-04-01T04:18:48.156Z,63.10
2018-04-01T04:19:48.119Z,63.40
2018-04-01T04:20:48.095Z,65.90
2018-04-01T04:21:48.070Z,67.30
2018-04-01T04:22:48.057Z,65.00
2018-04-01T04:23:48.017Z,65.10
2018-04-01T04:24:47.995Z,66.30
2018-04-01T04:25:47.978Z,67.00
2018-04-01T04:26:47.952Z,63.50
2018-04-01T04:27:47.916Z,63.30
2018-04-01T04:28:47.888Z,62.80
2018-04-01T04:29:47.883Z,62.30
2018-04-01T04:30:47.849Z,67.40
2018-04-01T04:31:47.817Z,66.20
2018-04-01T04:32:47.795Z,62.80
2018-04-01T04:33:47.761Z,63.90
2018-04-01T04:34:47.736Z,64.20
2018-04-01T04:35:47.721Z,62.20
2018-04-01T04:36:47.724Z,61.60
2018-04-01T04:37:47.670Z,63.50
2018-04-01T04:38:47.634Z,59.70
2018-04-01T04:39:47.617Z,58.40
2018-04-01T04:40:47.579Z,65.30
2018-04-01T04:41:47.557Z,58.10
2018-04-01T04:42:47.541Z,62.10
2018-04-01T04:43:47.506Z,63.20
2018-04-01T04:44:47.480Z,63.20
2018-04-01T04:45:47.453Z,59.90
2018-04-01T04:46:47.427Z,58.50
2018-04-01T04:47:47.413Z,58.90
2018-04-01T04:48:47.376Z,60.80
2018-04-01T04:49:47.362Z,60.80
2018-04-01T04:50:47.325Z,62.70
2018-04-01T04:51:47.304Z,59.60
2018-04-01T04:52:47.272Z,58.20
2018-04-01T04:53:47.246Z,58.70
2018-04-01T04:54:47.234Z,62.10
2018-04-01T04:55:47.196Z,58.30
2018-04-01T04:56:47.182Z,61.00
2018-04-01T04:57:47.144Z,62.90
2018-04-01T04:58:47.151Z,62.20
2018-04-01T04:59:47.104Z,57.40
2018-04-01T05:00:47.069Z,64.50
2018-04-01T05:01:47.062Z,61.50
2018-04-01T05:02:47.014Z,63.30
2018-04-01T05:03:47.004Z,62.50
2018-04-01T05:04:46.970Z,70.80
2018-04-01T05:05:46.951Z,60.30
2018-04-01T05:06:46.925Z,63.60
2018-04-01T05:07:46.886Z,67.10
2018-04-01T05:08:46.872Z,60.70
2018-04-01T05:09:46.845Z,63.20
2018-04-01T05:10:46.808Z,62.50
2018-04-01T05:11:46.796Z,59.90
2018-04-01T05:12:46.759Z,63.70
2018-04-01T05:13:46.733Z,65.70
2018-04-01T05:14:46.716Z,64.60
2018-04-01T05:15:46.690Z,64.40
2018-04-01T05:16:46.654Z,63.20
2018-04-01T05:17:46.629Z,59.50
2018-04-01T05:18:46.613Z,67.10
2018-04-01T05:19:46.596Z,64.70
2018-04-01T05:20:46.613Z,60.60
2018-04-01T05:21:46.525Z,64.00
2018-04-01T05:22:46.510Z,63.70
2018-04-01T05:23:46.472Z,61.40
2018-04-01T05:24:46.449Z,61.40
2018-04-01T05:25:46.433Z,62.80
2018-04-01T05:26:46.412Z,71.20
2018-04-01T05:27:46.369Z,67.60
2018-04-01T05:28:46.343Z,63.30
2018-04-01T05:29:46.329Z,66.40
2018-04-01T05:30:46.295Z,63.60
2018-04-01T05:31:46.267Z,65.50
2018-04-01T05:32:46.251Z,66.70
2018-04-01T05:33:46.217Z,63.80
2018-04-01T05:34:46.202Z,62.30
2018-04-01T05:35:46.171Z,62.60
2018-04-01T05:36:46.137Z,64.40
2018-04-01T05:37:46.113Z,63.50
2018-04-01T05:38:46.102Z,61.10
2018-04-01T05:39:46.076Z,64.00
2018-04-01T05:40:46.068Z,66.40
2018-04-01T05:41:46.008Z,64.60
2018-04-01T05:42:45.984Z,67.50
2018-04-01T05:43:45.975Z,63.60
2018-04-01T05:44:45.933Z,63.10
2018-04-01T05:45:45.918Z,64.70
2018-04-01T05:46:45.885Z,69.70
2018-04-01T05:47:45.852Z,62.10
2018-04-01T05:48:45.843Z,60.90
2018-04-01T05:49:45.825Z,66.10
2018-04-01T05:50:45.779Z,63.40
2018-04-01T05:51:45.754Z,68.20
2018-04-01T05:52:45.725Z,67.60
2018-04-01T05:53:45.701Z,66.70
2018-04-01T05:54:45.701Z,68.00
2018-04-01T05:55:45.650Z,65.00
2018-04-01T05:56:45.625Z,64.00
2018-04-01T05:57:45.599Z,62.50
2018-04-01T05:58:45.571Z,61.10
2018-04-01T05:59:45.556Z,65.10
2018-04-01T06:00:45.532Z,62.90
2018-04-01T06:01:45.506Z,64.90
2018-04-01T06:02:45.480Z,62.50
2018-04-01T06:03:45.466Z,61.00
2018-04-01T06:04:45.431Z,65.90
2018-04-01T06:05:45.403Z,62.80
2018-04-01T06:06:45.391Z,64.20
2018-04-01T06:07:45.340Z,61.00
2018-04-01T06:08:45.326Z,60.00
2018-04-01T06:09:45.301Z,62.20
2018-04-01T06:10:45.265Z,66.10
2018-04-01T06:11:45.249Z,61.50
2018-04-01T06:12:45.225Z,64.30
2018-04-01T06:13:45.187Z,63.80
2018-04-01T06:14:45.172Z,62.40
2018-04-01T06:15:45.135Z,62.40
2018-04-01T06:16:45.114Z,58.40
2018-04-01T06:17:45.082Z,61.70
2018-04-01T06:18:45.058Z,58.10
2018-04-01T06:19:45.032Z,65.30
2018-04-01T06:20:45.018Z,65.40
2018-04-01T06:21:44.986Z,63.70
2018-04-01T06:22:44.964Z,60.90
2018-04-01T06:23:44.945Z,66.00
2018-04-01T06:24:44.913Z,68.70
2018-04-01T06:25:44.916Z,69.20
2018-04-01T06:26:44.861Z,69.80
2018-04-01T06:27:44.823Z,69.10
2018-04-01T06:28:44.799Z,66.10
2018-04-01T06:29:44.773Z,69.60
2018-04-01T06:30:44.748Z,68.20
2018-04-01T06:31:44.733Z,60.90
2018-04-01T06:32:44.696Z,66.10
2018-04-01T06:33:44.671Z,65.30
2018-04-01T06:34:44.650Z,62.70
2018-04-01T06:35:44.634Z,61.70
2018-04-01T06:36:44.592Z,62.70
2018-04-01T06:37:44.564Z,55.90
2018-04-01T06:38:44.555Z,59.30
2018-04-01T06:39:44.515Z,61.80
2018-04-01T06:40:44.499Z,58.30
2018-04-01T06:41:44.473Z,61.20
2018-04-01T06:42:44.435Z,59.90
2018-04-01T06:43:44.446Z,61.40
2018-04-01T06:44:44.395Z,55.30
2018-04-01T06:45:44.380Z,58.50
2018-04-01T06:46:44.345Z,58.00
2018-04-01T06:47:44.315Z,58.30
2018-04-01T06:48:44.288Z,54.70
2018-04-01T06:49:44.254Z,57.30
2018-04-01T06:50:44.293Z,60.40
2018-04-01T06:51:44.202Z,57.00
2018-04-01T06:52:44.174Z,60.10
2018-04-01T06:53:44.150Z,58.70
2018-04-01T06:54:44.124Z,53.60
2018-04-01T06:55:44.109Z,47.80
2018-04-01T06:56:44.083Z,49.00
2018-04-01T06:57:44.059Z,47.30
2018-04-01T06:58:44.022Z,50.90
2018-04-01T06:59:44.025Z,51.40
2018-04-01T07:00:43.967Z,52.50
2018-04-01T07:01:43.947Z,53.50
2018-04-01T07:02:43.917Z,50.60
2018-04-01T07:03:43.886Z,51.90
2018-04-01T07:04:43.862Z,59.20
2018-04-01T07:05:43.835Z,62.90
2018-04-01T07:06:43.828Z,64.40
2018-04-01T07:07:43.785Z,63.30
2018-04-01T07:08:43.773Z,68.20
2018-04-01T07:09:43.742Z,64.50
2018-04-01T07:10:43.706Z,64.40
2018-04-01T07:11:43.690Z,60.60
2018-04-01T07:12:43.664Z,63.90
2018-04-01T07:13:43.629Z,59.40
2018-04-01T07:14:43.601Z,62.50
2018-04-01T07:15:43.576Z,53.60
2018-04-01T07:16:43.567Z,57.80
2018-04-01T07:17:43.532Z,62.60
2018-04-01T07:18:43.496Z,61.60
2018-04-01T07:19:43.479Z,61.90
2018-04-01T07:20:43.443Z,63.10
2018-04-01T07:21:43.455Z,59.90
2018-04-01T07:22:43.412Z,65.80
2018-04-01T07:23:43.453Z,68.10
2018-04-01T07:24:43.348Z,75.70
2018-04-01T07:25:43.331Z,75.20
2018-04-01T07:26:43.292Z,78.40
2018-04-01T07:27:43.258Z,72.80
2018-04-01T07:28:43.230Z,74.80
2018-04-01T07:29:43.220Z,80.50
2018-04-01T07:30:43.177Z,83.50
2018-04-01T07:31:43.163Z,85.20
2018-04-01T07:32:43.125Z,85.00
2018-04-01T07:33:43.098Z,83.10
2018-04-01T07:34:43.091Z,88.60
2018-04-01T07:35:43.062Z,91.20
2018-04-01T07:36:43.020Z,87.70
2018-04-01T07:37:43.003Z,101.10
2018-04-01T07:38:42.965Z,103.90
2018-04-01T07:39:42.954Z,101.80
2018-04-01T07:40:42.943Z,97.40
2018-04-01T07:41:42.888Z,100.10
2018-04-01T07:42:42.862Z,101.20
2018-04-01T07:43:42.837Z,104.50
2018-04-01T07:44:42.808Z,100.80
2018-04-01T07:45:42.783Z,103.70
2018-04-01T07:46:42.768Z,101.00
2018-04-01T07:47:42.732Z,100.10
2018-04-01T07:48:42.706Z,104.20
2018-04-01T07:49:42.677Z,87.90
2018-04-01T07:50:42.665Z,90.60
2018-04-01T07:51:42.639Z,91.80
2018-04-01T07:52:42.601Z,101.40
2018-04-01T07:53:42.585Z,106.30
2018-04-01T07:54:42.547Z,97.40
2018-04-01T07:55:42.521Z,95.70
2018-04-01T07:56:42.495Z,91.30
2018-04-01T07:57:42.481Z,89.70
2018-04-01T07:58:42.469Z,88.60
2018-04-01T07:59:42.439Z,100.70
2018-04-01T08:00:42.449Z,90.70
2018-04-01T08:01:42.366Z,83.40
2018-04-01T08:02:42.357Z,76.60
2018-04-01T08:03:42.327Z,89.50
2018-04-01T08:04:42.290Z,90.40
2018-04-01T08:05:42.276Z,83.10
2018-04-01T08:06:42.239Z,78.00
2018-04-01T08:07:42.226Z,80.30
2018-04-01T08:08:42.201Z,69.80
2018-04-01T08:09:42.176Z,73.90
2018-04-01T08:10:42.143Z,74.00
2018-04-01T08:11:42.132Z,88.00
2018-04-01T08:12:42.101Z,66.80
2018-04-01T08:13:42.064Z,68.60
2018-04-01T08:14:42.041Z,72.20
2018-04-01T08:15:42.049Z,74.50
2018-04-01T08:16:41.989Z,72.60
2018-04-01T08:17:41.975Z,68.30
2018-04-01T08:18:41.954Z,76.00
2018-04-01T08:19:41.917Z,71.50
2018-04-01T08:20:41.886Z,72.10
2018-04-01T08:21:41.871Z,67.20
2018-04-01T08:22:41.852Z,66.20
2018-04-01T08:23:41.814Z,66.90
2018-04-01T08:24:41.789Z,69.50
2018-04-01T08:25:41.768Z,73.50
2018-04-01T08:26:41.749Z,71.30
2018-04-01T08:27:41.722Z,62.70
2018-04-01T08:28:41.745Z,72.80
2018-04-01T08:29:41.673Z,69.60
2018-04-01T08:30:41.637Z,69.20
2018-04-01T08:31:41.617Z,65.60
2018-04-01T08:32:41.591Z,64.00
2018-04-01T08:33:41.579Z,69.30
2018-04-01T08:34:41.543Z,67.90
2018-04-01T08:35:41.514Z,68.90
2018-04-01T08:36:41.498Z,73.70
2018-04-01T08:37:41.476Z,63.90
2018-04-01T08:38:41.482Z,62.90
2018-04-01T08:39:41.415Z,63.40
2018-04-01T08:40:41.402Z,65.00
2018-04-01T08:41:41.386Z,68.50
2018-04-01T08:42:41.362Z,74.80
2018-04-01T08:43:41.316Z,64.60
2018-04-01T08:44:41.293Z,61.30
2018-04-01T08:45:41.270Z,62.80
2018-04-01T08:46:41.244Z,59.70
2018-04-01T08:47:41.276Z,64.10
2018-04-01T08:48:41.197Z,62.00
2018-04-01T08:49:41.175Z,56.80
2018-04-01T08:50:41.147Z,53.30
2018-04-01T08:51:41.125Z,51.90
2018-04-01T08:52:41.101Z,60.70
2018-04-01T08:53:41.078Z,59.70
2018-04-01T08:54:41.070Z,57.40
2018-04-01T08:55:41.034Z,60.90
2018-04-01T08:56:41.007Z,57.40
2018-04-01T08:57:40.994Z,56.00
2018-04-01T08:58:40.972Z,59.40
2018-04-01T08:59:40.935Z,58.70
2018-04-01T09:00:40.911Z,58.10
2018-04-01T09:01:40.886Z,62.40
2018-04-01T09:02:40.870Z,64.90
2018-04-01T09:03:40.852Z,58.30
2018-04-01T09:04:40.815Z,62.50
2018-04-01T09:05:40.804Z,61.70
2018-04-01T09:06:40.767Z,66.90
2018-04-01T09:07:40.751Z,70.60
2018-04-01T09:08:40.721Z,68.00
2018-04-01T09:09:40.698Z,61.20
2018-04-01T09:10:40.686Z,65.30
2018-04-01T09:11:40.660Z,61.60
2018-04-01T09:12:40.628Z,59.90
2018-04-01T09:13:40.615Z,62.60
2018-04-01T09:14:40.579Z,62.50
2018-04-01T09:15:40.565Z,59.60
2018-04-01T09:16:40.543Z,61.90
2018-04-01T09:17:40.512Z,64.20
2018-04-01T09:18:40.494Z,63.80
2018-04-01T09:19:40.467Z,64.40
2018-04-01T09:20:40.480Z,64.70
2018-04-01T09:21:40.410Z,63.10
2018-04-01T09:22:40.397Z,64.10
2018-04-01T09:23:40.358Z,63.30
2018-04-01T09:24:40.335Z,66.20
2018-04-01T09:25:40.312Z,68.50
2018-04-01T09:26:40.301Z,65.60
2018-04-01T09:27:40.268Z,64.80
2018-04-01T09:28:40.252Z,68.00
2018-04-01T09:29:40.227Z,65.50
2018-04-01T09:30:40.195Z,60.20
2018-04-01T09:31:40.169Z,63.80
2018-04-01T09:32:40.161Z,63.70
2018-04-01T09:33:40.123Z,60.80
2018-04-01T09:34:40.111Z,66.50
2018-04-01T09:35:40.073Z,62.40
2018-04-01T09:36:40.045Z,63.90
2018-04-01T09:37:40.040Z,65.60
2018-04-01T09:38:40.013Z,63.10
2018-04-01T09:39:39.979Z,66.30
2018-04-01T09:40:39.952Z,70.30
2018-04-01T09:41:39.927Z,65.50
2018-04-01T09:42:39.912Z,66.60
2018-04-01T09:43:39.879Z,65.20
2018-04-01T09:44:39.853Z,64.20
2018-04-01T09:45:39.831Z,69.20
2018-04-01T09:46:39.805Z,60.40
2018-04-01T09:47:39.793Z,61.90
2018-04-01T09:48:39.756Z,61.80
2018-04-01T09:49:39.733Z,62.00
2018-04-01T09:50:39.707Z,64.20
2018-04-01T09:51:39.699Z,63.70
2018-04-01T09:52:39.672Z,63.60
2018-04-01T09:53:39.640Z,57.10
2018-04-01T09:54:40.184Z,60.70
2018-04-01T09:55:39.587Z,66.80
2018-04-01T09:56:39.574Z,68.00
2018-04-01T09:57:39.536Z,68.50
2018-04-01T09:58:39.515Z,70.20
2018-04-01T09:59:39.489Z,72.60
2018-04-01T10:00:39.469Z,74.80
2018-04-01T10:01:39.437Z,67.10
2018-04-01T10:02:39.421Z,69.80
2018-04-01T10:03:39.389Z,71.20
2018-04-01T10:04:39.366Z,70.50
2018-04-01T10:05:39.355Z,78.70
2018-04-01T10:06:39.320Z,84.70
2018-04-01T10:07:39.334Z,78.10
2018-04-01T10:08:39.280Z,80.30
2018-04-01T10:09:39.255Z,80.20
2018-04-01T10:10:39.233Z,78.50
2018-04-01T10:11:39.199Z,71.10
2018-04-01T10:12:39.170Z,74.90
2018-04-01T10:13:39.148Z,72.40
2018-04-01T10:14:39.132Z,71.70
2018-04-01T10:15:39.098Z,74.40
2018-04-01T10:16:39.068Z,74.30
2018-04-01T10:17:39.058Z,77.90
2018-04-01T10:18:39.021Z,69.90
2018-04-01T10:19:39.015Z,75.30
2018-04-01T10:20:38.972Z,69.80
2018-04-01T10:21:38.947Z,79.10
2018-04-01T10:22:38.990Z,85.20
2018-04-01T10:23:38.897Z,87.50
2018-04-01T10:24:38.874Z,79.90
2018-04-01T10:25:38.862Z,82.70
2018-04-01T10:26:38.841Z,77.40
2018-04-01T10:27:38.813Z,79.50
2018-04-01T10:28:38.799Z,86.00
2018-04-01T10:29:38.762Z,83.60
2018-04-01T10:30:38.727Z,80.80
2018-04-01T10:31:38.701Z,77.90
2018-04-01T10:32:38.731Z,79.60
2018-04-01T10:33:38.655Z,77.50
2018-04-01T10:34:38.629Z,85.70
2018-04-01T10:35:38.603Z,81.90
2018-04-01T10:36:38.585Z,81.70
2018-04-01T10:37:38.557Z,84.50
2018-04-01T10:38:38.547Z,83.60
2018-04-01T10:39:38.509Z,78.30
2018-04-01T10:40:38.504Z,83.60
2018-04-01T10:41:38.472Z,83.80
2018-04-01T10:42:38.436Z,89.50
2018-04-01T10:43:38.408Z,87.40
2018-04-01T10:44:38.396Z,81.30
2018-04-01T10:45:38.362Z,80.60
2018-04-01T10:46:38.352Z,82.50
2018-04-01T10:47:38.315Z,83.70
2018-04-01T10:48:38.295Z,82.90
2018-04-01T10:49:38.276Z,81.20
2018-04-01T10:50:38.254Z,82.60
2018-04-01T10:51:38.216Z,82.30
2018-04-01T10:52:38.194Z,85.90
2018-04-01T10:53:38.168Z,81.20
2018-04-01T10:54:38.144Z,84.00
2018-04-01T10:55:38.120Z,83.70
2018-04-01T10:56:38.099Z,79.50
2018-04-01T10:57:38.087Z,79.50
2018-04-01T10:58:38.050Z,76.00
2018-04-01T10:59:38.025Z,77.10
2018-04-01T11:00:38.002Z,74.50
2018-04-01T11:01:37.984Z,78.50
2018-04-01T11:02:37.956Z,80.40
2018-04-01T11:03:37.941Z,79.00
2018-04-01T11:04:37.919Z,70.40
2018-04-01T11:05:37.884Z,76.40
2018-04-01T11:06:37.861Z,72.30
2018-04-01T11:07:37.836Z,74.40
2018-04-01T11:08:37.825Z,70.50
2018-04-01T11:09:37.794Z,70.70
2018-04-01T11:10:37.770Z,70.10
2018-04-01T11:11:37.755Z,78.20
2018-04-01T11:12:37.719Z,74.00
2018-04-01T11:13:37.697Z,73.90
2018-04-01T11:14:37.686Z,73.10
2018-04-01T11:15:37.666Z,75.50
2018-04-01T11:16:37.628Z,72.90
2018-04-01T11:17:37.612Z,71.90
2018-04-01T11:18:37.593Z,71.70
2018-04-01T11:19:37.570Z,72.20
2018-04-01T11:20:37.545Z,67.30
2018-04-01T11:21:37.521Z,69.40
2018-04-01T11:22:37.490Z,67.50
2018-04-01T11:23:37.464Z,68.20
2018-04-01T11:24:37.443Z,67.20
2018-04-01T11:25:37.431Z,65.30
2018-04-01T11:26:37.403Z,60.50
2018-04-01T11:27:37.387Z,61.20
2018-04-01T11:28:37.362Z,59.50
2018-04-01T11:29:37.342Z,57.60
2018-04-01T11:30:37.306Z,59.10
2018-04-01T11:31:37.294Z,60.10
2018-04-01T11:32:37.272Z,65.20
2018-04-01T11:33:37.248Z,63.70
2018-04-01T11:34:37.228Z,67.40
2018-04-01T11:35:37.195Z,65.40
2018-04-01T11:36:37.173Z,63.90
2018-04-01T11:37:37.153Z,66.30
2018-04-01T11:38:37.129Z,63.60
2018-04-01T11:39:37.105Z,58.40
2018-04-01T11:40:37.094Z,61.90
2018-04-01T11:41:37.062Z,61.80
2018-04-01T11:42:37.039Z,59.80
2018-04-01T11:43:37.022Z,58.80
2018-04-01T11:44:37.011Z,61.00
2018-04-01T11:45:36.972Z,59.30
2018-04-01T11:46:36.962Z,49.50
2018-04-01T11:47:36.939Z,51.70
2018-04-01T11:48:36.922Z,57.50
2018-04-01T11:49:36.885Z,52.80
2018-04-01T11:50:36.863Z,51.50
2018-04-01T11:51:36.841Z,54.80
2018-04-01T11:52:36.821Z,49.10
2018-04-01T11:53:36.819Z,51.50
2018-04-01T11:54:36.788Z,52.10
2018-04-01T11:55:36.772Z,55.40
2018-04-01T11:56:36.736Z,55.70
2018-04-01T11:57:36.712Z,56.60
2018-04-01T11:58:36.694Z,60.60
2018-04-01T11:59:36.669Z,57.70
2018-04-01T12:00:36.648Z,60.90
2018-04-01T12:01:36.639Z,60.40
2018-04-01T12:02:36.610Z,56.50
2018-04-01T12:03:36.596Z,53.90
2018-04-01T12:04:36.564Z,56.60
2018-04-01T12:05:36.541Z,52.60
2018-04-01T12:06:36.534Z,52.30
2018-04-01T12:07:36.515Z,56.90
2018-04-01T12:08:36.488Z,55.20
2018-04-01T12:09:36.457Z,58.70
2018-04-01T12:10:36.437Z,55.80
2018-04-01T12:11:36.414Z,55.60
2018-04-01T12:12:36.394Z,57.00
2018-04-01T12:13:36.382Z,56.50
2018-04-01T12:14:36.361Z,57.70
2018-04-01T12:15:36.334Z,58.00
2018-04-01T12:16:36.305Z,55.30
2018-04-01T12:17:36.307Z,56.70
2018-04-01T12:18:36.263Z,55.00
2018-04-01T12:19:36.240Z,53.70
2018-04-01T12:20:36.237Z,53.60
2018-04-01T12:21:36.210Z,52.20
2018-04-01T12:22:36.200Z,54.50
2018-04-01T12:23:36.175Z,53.90
2018-04-01T12:24:36.147Z,51.60
2018-04-01T12:25:36.114Z,48.10
2018-04-01T12:26:36.094Z,46.30
2018-04-01T12:27:36.084Z,48.10
2018-04-01T12:28:36.067Z,46.10
2018-04-01T12:29:36.040Z,46.80
2018-04-01T12:30:36.007Z,49.90
2018-04-01T12:31:35.987Z,47.30
2018-04-01T12:32:35.966Z,42.60
2018-04-01T12:33:35.955Z,46.20
2018-04-01T12:34:35.949Z,43.30
2018-04-01T12:35:35.913Z,41.90
2018-04-01T12:36:35.887Z,42.90
2018-04-01T12:37:35.866Z,45.00
2018-04-01T12:38:35.841Z,42.50
2018-04-01T12:39:35.832Z,44.30
2018-04-01T12:40:35.813Z,46.90
2018-04-01T12:41:35.774Z,41.90
2018-04-01T12:42:35.766Z,47.20
2018-04-01T12:43:35.742Z,42.80
2018-04-01T12:44:35.713Z,41.30
2018-04-01T12:45:35.690Z,42.80
2018-04-01T12:46:35.682Z,40.10
2018-04-01T12:47:35.659Z,39.30
2018-04-01T12:48:35.634Z,40.80
2018-04-01T12:49:35.607Z,39.20
2018-04-01T12:50:35.597Z,44.40
2018-04-01T12:51:35.576Z,42.60
2018-04-01T12:52:35.560Z,44.60